sensor_id;sensor_type;location;lat;lon;timestamp;P1;durP1;ratioP1;P2;durP2;ratioP2
49422;SDS011;36998;51.974;20.150;2022-09-27T00:01:52;159.13;;;39.42;;
49422;SDS011;36998;51.974;20.150;2022-09-27T00:04:17;212.68;;;39.65;;
49422;SDS011;36998;51.974;20.150;2022-09-27T00:06:43;251.70;;;40.72;;
49422;SDS011;36998;51.974;20.150;2022-09-27T00:09:08;267.27;;;39.30;;
49422;SDS011;36998;51.974;20.150;2022-09-27T00:11:35;274.00;;;41.35;;
49422;SDS011;36998;51.974;20.150;2022-09-27T00:14:03;391.55;;;45.72;;
49422;SDS011;36998;51.974;20.150;2022-09-27T00:16:31;257.02;;;38.13;;
49422;SDS011;36998;51.974;20.150;2022-09-27T00:19:04;382.90;;;42.65;;
49422;SDS011;36998;51.974;20.150;2022-09-27T00:21:35;290.75;;;41.72;;
49422;SDS011;36998;51.974;20.150;2022-09-27T00:24:01;254.18;;;40.38;;
49422;SDS011;36998;51.974;20.150;2022-09-27T00:26:27;208.32;;;35.90;;
49422;SDS011;36998;51.974;20.150;2022-09-27T00:28:53;344.02;;;47.22;;
49422;SDS011;36998;51.974;20.150;2022-09-27T00:31:21;283.25;;;44.67;;
49422;SDS011;36998;51.974;20.150;2022-09-27T00:33:49;222.75;;;37.53;;
49422;SDS011;36998;51.974;20.150;2022-09-27T00:36:17;235.95;;;43.58;;
49422;SDS011;36998;51.974;20.150;2022-09-27T00:38:44;344.92;;;45.53;;
49422;SDS011;36998;51.974;20.150;2022-09-27T00:41:14;180.40;;;39.33;;
49422;SDS011;36998;51.974;20.150;2022-09-27T00:43:52;311.30;;;41.33;;
49422;SDS011;36998;51.974;20.150;2022-09-27T00:46:28;297.02;;;44.08;;
49422;SDS011;36998;51.974;20.150;2022-09-27T00:49:05;587.83;;;56.05;;
49422;SDS011;36998;51.974;20.150;2022-09-27T00:51:43;425.33;;;46.60;;
49422;SDS011;36998;51.974;20.150;2022-09-27T00:54:12;195.67;;;41.77;;
49422;SDS011;36998;51.974;20.150;2022-09-27T00:56:40;555.78;;;51.88;;
49422;SDS011;36998;51.974;20.150;2022-09-27T00:59:10;345.70;;;41.47;;
49422;SDS011;36998;51.974;20.150;2022-09-27T01:01:40;640.55;;;59.22;;
49422;SDS011;36998;51.974;20.150;2022-09-27T01:04:06;478.60;;;50.13;;
49422;SDS011;36998;51.974;20.150;2022-09-27T01:06:34;791.15;;;66.68;;
49422;SDS011;36998;51.974;20.150;2022-09-27T01:09:02;686.65;;;60.80;;
49422;SDS011;36998;51.974;20.150;2022-09-27T01:11:34;432.33;;;51.95;;
49422;SDS011;36998;51.974;20.150;2022-09-27T01:14:11;448.83;;;51.25;;
49422;SDS011;36998;51.974;20.150;2022-09-27T01:19:52;421.45;;;47.10;;
49422;SDS011;36998;51.974;20.150;2022-09-27T01:25:33;425.85;;;49.35;;
49422;SDS011;36998;51.974;20.150;2022-09-27T01:33:46;351.17;;;49.28;;
49422;SDS011;36998;51.974;20.150;2022-09-27T01:38:56;343.20;;;48.88;;
49422;SDS011;36998;51.974;20.150;2022-09-27T01:45:00;438.77;;;54.05;;
49422;SDS011;36998;51.974;20.150;2022-09-27T01:47:44;326.10;;;50.55;;
49422;SDS011;36998;51.974;20.150;2022-09-27T01:50:34;238.63;;;41.85;;
49422;SDS011;36998;51.974;20.150;2022-09-27T01:53:05;208.30;;;46.13;;
49422;SDS011;36998;51.974;20.150;2022-09-27T01:55:53;279.92;;;47.97;;
49422;SDS011;36998;51.974;20.150;2022-09-27T01:58:44;217.13;;;45.20;;
49422;SDS011;36998;51.974;20.150;2022-09-27T02:01:32;211.75;;;43.40;;
49422;SDS011;36998;51.974;20.150;2022-09-27T02:04:01;205.77;;;46.97;;
49422;SDS011;36998;51.974;20.150;2022-09-27T02:07:01;277.15;;;46.40;;
49422;SDS011;36998;51.974;20.150;2022-09-27T02:09:44;257.58;;;48.00;;
49422;SDS011;36998;51.974;20.150;2022-09-27T02:12:18;194.30;;;47.22;;
49422;SDS011;36998;51.974;20.150;2022-09-27T02:14:57;216.25;;;46.13;;
49422;SDS011;36998;51.974;20.150;2022-09-27T02:17:43;204.57;;;45.47;;
49422;SDS011;36998;51.974;20.150;2022-09-27T02:26:06;203.60;;;43.88;;
49422;SDS011;36998;51.974;20.150;2022-09-27T02:28:47;218.82;;;45.72;;
49422;SDS011;36998;51.974;20.150;2022-09-27T02:31:29;172.52;;;44.47;;
49422;SDS011;36998;51.974;20.150;2022-09-27T02:33:58;184.38;;;42.60;;
49422;SDS011;36998;51.974;20.150;2022-09-27T02:36:27;169.82;;;44.33;;
49422;SDS011;36998;51.974;20.150;2022-09-27T02:38:52;165.60;;;42.17;;
49422;SDS011;36998;51.974;20.150;2022-09-27T02:41:20;189.10;;;44.88;;
49422;SDS011;36998;51.974;20.150;2022-09-27T02:43:48;173.45;;;43.67;;
49422;SDS011;36998;51.974;20.150;2022-09-27T02:46:39;164.90;;;43.72;;
49422;SDS011;36998;51.974;20.150;2022-09-27T02:52:41;190.50;;;44.60;;
49422;SDS011;36998;51.974;20.150;2022-09-27T03:05:06;155.88;;;39.90;;
49422;SDS011;36998;51.974;20.150;2022-09-27T03:07:35;148.57;;;41.45;;
49422;SDS011;36998;51.974;20.150;2022-09-27T03:10:03;139.20;;;41.08;;
49422;SDS011;36998;51.974;20.150;2022-09-27T03:12:29;135.65;;;42.13;;
49422;SDS011;36998;51.974;20.150;2022-09-27T03:14:55;141.27;;;41.70;;
49422;SDS011;36998;51.974;20.150;2022-09-27T03:17:40;116.75;;;39.08;;
49422;SDS011;36998;51.974;20.150;2022-09-27T03:20:18;123.18;;;38.30;;
49422;SDS011;36998;51.974;20.150;2022-09-27T03:23:02;122.07;;;38.55;;
49422;SDS011;36998;51.974;20.150;2022-09-27T03:25:28;119.97;;;37.88;;
49422;SDS011;36998;51.974;20.150;2022-09-27T03:27:54;122.63;;;36.42;;
49422;SDS011;36998;51.974;20.150;2022-09-27T03:30:19;115.05;;;38.60;;
49422;SDS011;36998;51.974;20.150;2022-09-27T03:32:45;135.50;;;38.42;;
49422;SDS011;36998;51.974;20.150;2022-09-27T03:35:34;122.38;;;39.92;;
49422;SDS011;36998;51.974;20.150;2022-09-27T03:38:00;122.25;;;40.25;;
49422;SDS011;36998;51.974;20.150;2022-09-27T03:40:26;123.03;;;39.97;;
49422;SDS011;36998;51.974;20.150;2022-09-27T03:42:51;110.00;;;37.75;;
49422;SDS011;36998;51.974;20.150;2022-09-27T03:45:17;90.47;;;33.97;;
49422;SDS011;36998;51.974;20.150;2022-09-27T03:47:43;86.95;;;32.78;;
49422;SDS011;36998;51.974;20.150;2022-09-27T03:50:09;81.60;;;33.00;;
49422;SDS011;36998;51.974;20.150;2022-09-27T03:52:36;82.18;;;31.23;;
49422;SDS011;36998;51.974;20.150;2022-09-27T03:55:01;82.95;;;32.95;;
49422;SDS011;36998;51.974;20.150;2022-09-27T03:57:27;91.68;;;32.25;;
49422;SDS011;36998;51.974;20.150;2022-09-27T03:59:54;87.30;;;31.25;;
49422;SDS011;36998;51.974;20.150;2022-09-27T04:02:40;80.45;;;32.53;;
49422;SDS011;36998;51.974;20.150;2022-09-27T04:05:22;79.47;;;32.35;;
49422;SDS011;36998;51.974;20.150;2022-09-27T04:10:18;78.38;;;30.15;;
49422;SDS011;36998;51.974;20.150;2022-09-27T04:12:45;83.75;;;31.02;;
49422;SDS011;36998;51.974;20.150;2022-09-27T04:15:10;81.50;;;31.73;;
49422;SDS011;36998;51.974;20.150;2022-09-27T04:18:05;74.65;;;31.77;;
49422;SDS011;36998;51.974;20.150;2022-09-27T04:20:31;75.60;;;30.70;;
49422;SDS011;36998;51.974;20.150;2022-09-27T04:22:58;84.88;;;32.28;;
49422;SDS011;36998;51.974;20.150;2022-09-27T04:25:23;83.28;;;34.47;;
49422;SDS011;36998;51.974;20.150;2022-09-27T04:27:52;83.55;;;35.05;;
49422;SDS011;36998;51.974;20.150;2022-09-27T04:30:19;82.07;;;34.75;;
49422;SDS011;36998;51.974;20.150;2022-09-27T04:33:03;74.43;;;30.63;;
49422;SDS011;36998;51.974;20.150;2022-09-27T04:35:47;65.18;;;29.50;;
49422;SDS011;36998;51.974;20.150;2022-09-27T04:38:33;75.18;;;30.75;;
49422;SDS011;36998;51.974;20.150;2022-09-27T04:40:59;74.88;;;30.92;;
49422;SDS011;36998;51.974;20.150;2022-09-27T04:43:27;73.65;;;31.52;;
49422;SDS011;36998;51.974;20.150;2022-09-27T04:45:53;81.85;;;32.45;;
49422;SDS011;36998;51.974;20.150;2022-09-27T04:48:19;74.03;;;32.45;;
49422;SDS011;36998;51.974;20.150;2022-09-27T04:50:45;73.65;;;30.65;;
49422;SDS011;36998;51.974;20.150;2022-09-27T04:53:12;71.93;;;31.05;;
49422;SDS011;36998;51.974;20.150;2022-09-27T04:55:39;68.63;;;30.33;;
49422;SDS011;36998;51.974;20.150;2022-09-27T04:58:04;68.13;;;31.55;;
49422;SDS011;36998;51.974;20.150;2022-09-27T05:00:30;71.35;;;30.73;;
49422;SDS011;36998;51.974;20.150;2022-09-27T05:03:06;71.97;;;32.83;;
49422;SDS011;36998;51.974;20.150;2022-09-27T05:05:41;75.75;;;31.77;;
49422;SDS011;36998;51.974;20.150;2022-09-27T05:08:06;67.97;;;30.58;;
49422;SDS011;36998;51.974;20.150;2022-09-27T05:10:52;70.00;;;28.98;;
49422;SDS011;36998;51.974;20.150;2022-09-27T05:13:19;70.15;;;30.52;;
49422;SDS011;36998;51.974;20.150;2022-09-27T05:15:45;68.30;;;29.98;;
49422;SDS011;36998;51.974;20.150;2022-09-27T05:18:30;64.18;;;29.27;;
49422;SDS011;36998;51.974;20.150;2022-09-27T05:21:28;65.32;;;30.80;;
49422;SDS011;36998;51.974;20.150;2022-09-27T05:23:53;73.68;;;32.30;;
49422;SDS011;36998;51.974;20.150;2022-09-27T05:26:19;72.95;;;30.55;;
49422;SDS011;36998;51.974;20.150;2022-09-27T05:28:44;72.22;;;31.75;;
49422;SDS011;36998;51.974;20.150;2022-09-27T05:31:11;77.97;;;33.28;;
49422;SDS011;36998;51.974;20.150;2022-09-27T05:33:38;69.85;;;31.42;;
49422;SDS011;36998;51.974;20.150;2022-09-27T05:36:40;68.78;;;29.30;;
49422;SDS011;36998;51.974;20.150;2022-09-27T05:39:06;69.55;;;29.90;;
49422;SDS011;36998;51.974;20.150;2022-09-27T05:41:32;66.70;;;29.02;;
49422;SDS011;36998;51.974;20.150;2022-09-27T05:43:58;68.40;;;29.70;;
49422;SDS011;36998;51.974;20.150;2022-09-27T05:46:23;71.18;;;30.13;;
49422;SDS011;36998;51.974;20.150;2022-09-27T05:48:49;68.55;;;29.23;;
49422;SDS011;36998;51.974;20.150;2022-09-27T05:51:14;66.13;;;29.08;;
49422;SDS011;36998;51.974;20.150;2022-09-27T05:53:40;65.03;;;29.70;;
49422;SDS011;36998;51.974;20.150;2022-09-27T05:56:13;62.40;;;29.00;;
49422;SDS011;36998;51.974;20.150;2022-09-27T05:59:07;58.08;;;27.27;;
49422;SDS011;36998;51.974;20.150;2022-09-27T06:01:53;65.68;;;27.17;;
49422;SDS011;36998;51.974;20.150;2022-09-27T06:04:37;56.38;;;26.67;;
49422;SDS011;36998;51.974;20.150;2022-09-27T06:07:22;64.35;;;28.50;;
49422;SDS011;36998;51.974;20.150;2022-09-27T06:09:47;54.47;;;25.85;;
49422;SDS011;36998;51.974;20.150;2022-09-27T06:12:13;52.80;;;23.45;;
49422;SDS011;36998;51.974;20.150;2022-09-27T06:14:39;47.63;;;23.13;;
49422;SDS011;36998;51.974;20.150;2022-09-27T06:17:08;49.47;;;22.92;;
49422;SDS011;36998;51.974;20.150;2022-09-27T06:19:36;46.70;;;21.90;;
49422;SDS011;36998;51.974;20.150;2022-09-27T06:22:02;43.85;;;19.90;;
49422;SDS011;36998;51.974;20.150;2022-09-27T06:24:37;45.47;;;20.98;;
49422;SDS011;36998;51.974;20.150;2022-09-27T06:27:08;43.05;;;19.88;;
49422;SDS011;36998;51.974;20.150;2022-09-27T06:29:46;44.35;;;18.85;;
49422;SDS011;36998;51.974;20.150;2022-09-27T06:32:21;41.60;;;17.83;;
49422;SDS011;36998;51.974;20.150;2022-09-27T06:34:55;38.10;;;17.55;;
49422;SDS011;36998;51.974;20.150;2022-09-27T06:37:23;41.08;;;18.10;;
49422;SDS011;36998;51.974;20.150;2022-09-27T06:42:37;34.30;;;16.67;;
49422;SDS011;36998;51.974;20.150;2022-09-27T06:45:10;35.72;;;17.20;;
49422;SDS011;36998;51.974;20.150;2022-09-27T06:47:56;34.58;;;16.30;;
49422;SDS011;36998;51.974;20.150;2022-09-27T06:50:32;32.22;;;15.32;;
49422;SDS011;36998;51.974;20.150;2022-09-27T06:53:00;34.10;;;15.35;;
49422;SDS011;36998;51.974;20.150;2022-09-27T06:55:26;35.35;;;15.57;;
49422;SDS011;36998;51.974;20.150;2022-09-27T06:57:55;36.33;;;16.13;;
49422;SDS011;36998;51.974;20.150;2022-09-27T07:00:49;33.60;;;16.88;;
49422;SDS011;36998;51.974;20.150;2022-09-27T07:03:39;34.00;;;16.13;;
49422;SDS011;36998;51.974;20.150;2022-09-27T07:06:26;35.17;;;16.27;;
49422;SDS011;36998;51.974;20.150;2022-09-27T07:08:57;31.95;;;14.90;;
49422;SDS011;36998;51.974;20.150;2022-09-27T07:11:23;32.10;;;16.10;;
49422;SDS011;36998;51.974;20.150;2022-09-27T07:13:51;28.10;;;15.07;;
49422;SDS011;36998;51.974;20.150;2022-09-27T07:16:16;36.17;;;16.17;;
49422;SDS011;36998;51.974;20.150;2022-09-27T07:18:43;35.05;;;16.58;;
49422;SDS011;36998;51.974;20.150;2022-09-27T07:21:08;31.80;;;15.75;;
49422;SDS011;36998;51.974;20.150;2022-09-27T07:23:35;30.20;;;15.13;;
49422;SDS011;36998;51.974;20.150;2022-09-27T07:26:02;28.17;;;14.35;;
49422;SDS011;36998;51.974;20.150;2022-09-27T07:28:28;27.38;;;13.93;;
49422;SDS011;36998;51.974;20.150;2022-09-27T07:30:54;27.15;;;15.02;;
49422;SDS011;36998;51.974;20.150;2022-09-27T07:33:20;23.45;;;13.85;;
49422;SDS011;36998;51.974;20.150;2022-09-27T07:35:46;22.33;;;13.65;;
49422;SDS011;36998;51.974;20.150;2022-09-27T07:38:12;25.25;;;14.40;;
49422;SDS011;36998;51.974;20.150;2022-09-27T07:40:39;22.75;;;13.65;;
49422;SDS011;36998;51.974;20.150;2022-09-27T07:43:05;26.35;;;14.70;;
49422;SDS011;36998;51.974;20.150;2022-09-27T07:45:32;25.75;;;13.52;;
49422;SDS011;36998;51.974;20.150;2022-09-27T07:48:14;26.75;;;15.25;;
49422;SDS011;36998;51.974;20.150;2022-09-27T07:50:59;25.88;;;14.18;;
49422;SDS011;36998;51.974;20.150;2022-09-27T07:53:46;27.58;;;14.80;;
49422;SDS011;36998;51.974;20.150;2022-09-27T07:56:30;25.95;;;15.05;;
49422;SDS011;36998;51.974;20.150;2022-09-27T07:58:56;27.15;;;15.25;;
49422;SDS011;36998;51.974;20.150;2022-09-27T08:01:23;31.50;;;17.63;;
49422;SDS011;36998;51.974;20.150;2022-09-27T08:03:48;30.13;;;18.13;;
49422;SDS011;36998;51.974;20.150;2022-09-27T08:06:14;31.95;;;18.42;;
49422;SDS011;36998;51.974;20.150;2022-09-27T08:08:40;31.88;;;18.75;;
49422;SDS011;36998;51.974;20.150;2022-09-27T08:11:11;32.38;;;20.17;;
49422;SDS011;36998;51.974;20.150;2022-09-27T08:13:42;36.90;;;19.92;;
49422;SDS011;36998;51.974;20.150;2022-09-27T08:16:10;37.83;;;21.67;;
49422;SDS011;36998;51.974;20.150;2022-09-27T08:19:05;35.00;;;21.38;;
49422;SDS011;36998;51.974;20.150;2022-09-27T08:21:43;31.80;;;20.05;;
49422;SDS011;36998;51.974;20.150;2022-09-27T08:24:15;35.25;;;22.02;;
49422;SDS011;36998;51.974;20.150;2022-09-27T08:27:03;37.90;;;22.25;;
49422;SDS011;36998;51.974;20.150;2022-09-27T08:29:46;33.50;;;21.48;;
49422;SDS011;36998;51.974;20.150;2022-09-27T08:32:13;36.25;;;21.95;;
49422;SDS011;36998;51.974;20.150;2022-09-27T08:34:40;33.53;;;21.42;;
49422;SDS011;36998;51.974;20.150;2022-09-27T08:37:06;36.10;;;22.40;;
49422;SDS011;36998;51.974;20.150;2022-09-27T08:39:31;34.58;;;21.80;;
49422;SDS011;36998;51.974;20.150;2022-09-27T08:45:02;34.38;;;21.60;;
49422;SDS011;36998;51.974;20.150;2022-09-27T08:47:44;34.38;;;21.85;;
49422;SDS011;36998;51.974;20.150;2022-09-27T08:50:20;32.67;;;20.27;;
49422;SDS011;36998;51.974;20.150;2022-09-27T08:55:46;28.55;;;19.25;;
49422;SDS011;36998;51.974;20.150;2022-09-27T08:58:22;28.27;;;19.58;;
49422;SDS011;36998;51.974;20.150;2022-09-27T09:00:52;32.65;;;20.67;;
49422;SDS011;36998;51.974;20.150;2022-09-27T09:03:22;29.25;;;19.83;;
49422;SDS011;36998;51.974;20.150;2022-09-27T09:06:08;30.83;;;18.98;;
49422;SDS011;36998;51.974;20.150;2022-09-27T09:11:26;26.03;;;17.90;;
49422;SDS011;36998;51.974;20.150;2022-09-27T09:14:26;26.40;;;18.25;;
49422;SDS011;36998;51.974;20.150;2022-09-27T09:26:07;32.08;;;18.10;;
49422;SDS011;36998;51.974;20.150;2022-09-27T09:31:40;28.45;;;19.25;;
49422;SDS011;36998;51.974;20.150;2022-09-27T09:34:21;27.70;;;18.13;;
49422;SDS011;36998;51.974;20.150;2022-09-27T09:39:36;23.30;;;15.90;;
49422;SDS011;36998;51.974;20.150;2022-09-27T09:42:09;27.30;;;16.50;;
49422;SDS011;36998;51.974;20.150;2022-09-27T09:44:51;20.55;;;14.35;;
49422;SDS011;36998;51.974;20.150;2022-09-27T09:47:36;24.00;;;15.43;;
49422;SDS011;36998;51.974;20.150;2022-09-27T09:50:17;26.17;;;15.07;;
49422;SDS011;36998;51.974;20.150;2022-09-27T09:52:51;21.45;;;14.43;;
49422;SDS011;36998;51.974;20.150;2022-09-27T09:55:22;23.52;;;15.23;;
49422;SDS011;36998;51.974;20.150;2022-09-27T10:00:50;24.40;;;14.68;;
49422;SDS011;36998;51.974;20.150;2022-09-27T10:03:19;17.60;;;12.27;;
49422;SDS011;36998;51.974;20.150;2022-09-27T10:05:45;19.85;;;13.23;;
49422;SDS011;36998;51.974;20.150;2022-09-27T10:08:12;19.08;;;11.85;;
49422;SDS011;36998;51.974;20.150;2022-09-27T10:10:43;17.50;;;11.45;;
49422;SDS011;36998;51.974;20.150;2022-09-27T10:13:34;17.67;;;12.52;;
49422;SDS011;36998;51.974;20.150;2022-09-27T10:16:06;16.77;;;12.10;;
49422;SDS011;36998;51.974;20.150;2022-09-27T10:18:35;17.80;;;12.32;;
49422;SDS011;36998;51.974;20.150;2022-09-27T10:21:05;19.80;;;13.05;;
49422;SDS011;36998;51.974;20.150;2022-09-27T10:23:35;17.58;;;12.40;;
49422;SDS011;36998;51.974;20.150;2022-09-27T10:26:56;19.60;;;12.20;;
49422;SDS011;36998;51.974;20.150;2022-09-27T10:29:28;16.60;;;11.32;;
49422;SDS011;36998;51.974;20.150;2022-09-27T10:31:56;16.08;;;10.55;;
49422;SDS011;36998;51.974;20.150;2022-09-27T10:40:14;13.55;;;9.77;;
49422;SDS011;36998;51.974;20.150;2022-09-27T10:43:02;10.82;;;8.52;;
49422;SDS011;36998;51.974;20.150;2022-09-27T10:48:41;12.77;;;9.48;;
49422;SDS011;36998;51.974;20.150;2022-09-27T10:54:17;11.60;;;9.05;;
49422;SDS011;36998;51.974;20.150;2022-09-27T10:56:45;16.50;;;7.95;;
49422;SDS011;36998;51.974;20.150;2022-09-27T10:59:20;13.30;;;9.63;;
49422;SDS011;36998;51.974;20.150;2022-09-27T11:01:46;11.82;;;8.23;;
49422;SDS011;36998;51.974;20.150;2022-09-27T11:04:18;11.27;;;8.65;;
49422;SDS011;36998;51.974;20.150;2022-09-27T11:06:47;12.18;;;8.70;;
49422;SDS011;36998;51.974;20.150;2022-09-27T11:09:17;10.70;;;8.15;;
49422;SDS011;36998;51.974;20.150;2022-09-27T11:14:37;11.18;;;8.73;;
49422;SDS011;36998;51.974;20.150;2022-09-27T11:28:37;14.93;;;9.43;;
49422;SDS011;36998;51.974;20.150;2022-09-27T11:37:39;14.05;;;8.60;;
49422;SDS011;36998;51.974;20.150;2022-09-27T11:40:14;12.65;;;8.90;;
49422;SDS011;36998;51.974;20.150;2022-09-27T11:42:54;12.65;;;9.43;;
49422;SDS011;36998;51.974;20.150;2022-09-27T11:50:55;13.75;;;8.82;;
49422;SDS011;36998;51.974;20.150;2022-09-27T11:53:49;10.52;;;7.75;;
49422;SDS011;36998;51.974;20.150;2022-09-27T12:01:55;10.57;;;7.45;;
49422;SDS011;36998;51.974;20.150;2022-09-27T12:05:05;11.63;;;7.93;;
49422;SDS011;36998;51.974;20.150;2022-09-27T12:10:41;9.85;;;8.23;;
49422;SDS011;36998;51.974;20.150;2022-09-27T12:13:14;10.95;;;8.30;;
49422;SDS011;36998;51.974;20.150;2022-09-27T12:15:54;8.48;;;7.55;;
49422;SDS011;36998;51.974;20.150;2022-09-27T12:18:26;8.32;;;7.47;;
49422;SDS011;36998;51.974;20.150;2022-09-27T12:20:58;13.07;;;6.88;;
49422;SDS011;36998;51.974;20.150;2022-09-27T12:26:39;8.32;;;7.53;;
49422;SDS011;36998;51.974;20.150;2022-09-27T12:29:11;9.20;;;7.80;;
49422;SDS011;36998;51.974;20.150;2022-09-27T12:31:41;8.23;;;7.07;;
49422;SDS011;36998;51.974;20.150;2022-09-27T12:34:17;8.82;;;7.97;;
49422;SDS011;36998;51.974;20.150;2022-09-27T12:36:47;11.32;;;9.40;;
49422;SDS011;36998;51.974;20.150;2022-09-27T12:39:22;10.35;;;8.93;;
49422;SDS011;36998;51.974;20.150;2022-09-27T12:42:05;10.18;;;9.25;;
49422;SDS011;36998;51.974;20.150;2022-09-27T12:44:44;12.20;;;9.25;;
49422;SDS011;36998;51.974;20.150;2022-09-27T12:47:19;12.90;;;9.07;;
49422;SDS011;36998;51.974;20.150;2022-09-27T12:52:39;10.95;;;9.85;;
49422;SDS011;36998;51.974;20.150;2022-09-27T12:58:04;13.50;;;9.90;;
49422;SDS011;36998;51.974;20.150;2022-09-27T13:03:33;11.23;;;9.38;;
49422;SDS011;36998;51.974;20.150;2022-09-27T13:06:18;12.02;;;8.77;;
49422;SDS011;36998;51.974;20.150;2022-09-27T13:12:06;13.55;;;10.32;;
49422;SDS011;36998;51.974;20.150;2022-09-27T13:14:43;12.02;;;9.63;;
49422;SDS011;36998;51.974;20.150;2022-09-27T13:17:31;11.70;;;10.50;;
49422;SDS011;36998;51.974;20.150;2022-09-27T13:22:56;9.98;;;8.98;;
49422;SDS011;36998;51.974;20.150;2022-09-27T13:30:59;11.05;;;8.90;;
49422;SDS011;36998;51.974;20.150;2022-09-27T13:33:42;11.48;;;8.95;;
49422;SDS011;36998;51.974;20.150;2022-09-27T13:36:25;10.05;;;8.95;;
49422;SDS011;36998;51.974;20.150;2022-09-27T13:42:13;13.50;;;9.32;;
49422;SDS011;36998;51.974;20.150;2022-09-27T13:45:00;12.73;;;8.35;;
49422;SDS011;36998;51.974;20.150;2022-09-27T13:47:46;10.63;;;8.93;;
49422;SDS011;36998;51.974;20.150;2022-09-27T13:50:28;16.33;;;10.00;;
49422;SDS011;36998;51.974;20.150;2022-09-27T13:53:20;12.35;;;8.82;;
49422;SDS011;36998;51.974;20.150;2022-09-27T13:55:52;10.80;;;9.70;;
49422;SDS011;36998;51.974;20.150;2022-09-27T13:58:31;11.43;;;9.23;;
49422;SDS011;36998;51.974;20.150;2022-09-27T14:01:25;10.77;;;9.05;;
49422;SDS011;36998;51.974;20.150;2022-09-27T14:03:58;12.65;;;9.73;;
49422;SDS011;36998;51.974;20.150;2022-09-27T14:06:33;13.95;;;9.52;;
49422;SDS011;36998;51.974;20.150;2022-09-27T14:09:04;11.40;;;9.38;;
49422;SDS011;36998;51.974;20.150;2022-09-27T14:11:37;16.27;;;9.10;;
49422;SDS011;36998;51.974;20.150;2022-09-27T14:14:10;12.48;;;9.10;;
49422;SDS011;36998;51.974;20.150;2022-09-27T14:16:46;12.52;;;10.23;;
49422;SDS011;36998;51.974;20.150;2022-09-27T14:19:20;10.18;;;9.10;;
49422;SDS011;36998;51.974;20.150;2022-09-27T14:21:49;11.40;;;9.73;;
49422;SDS011;36998;51.974;20.150;2022-09-27T14:24:28;12.60;;;10.13;;
49422;SDS011;36998;51.974;20.150;2022-09-27T14:27:17;15.07;;;10.15;;
49422;SDS011;36998;51.974;20.150;2022-09-27T14:32:44;12.43;;;8.50;;
49422;SDS011;36998;51.974;20.150;2022-09-27T14:35:18;11.23;;;9.25;;
49422;SDS011;36998;51.974;20.150;2022-09-27T14:38:04;11.25;;;8.93;;
49422;SDS011;36998;51.974;20.150;2022-09-27T14:40:37;10.43;;;9.30;;
49422;SDS011;36998;51.974;20.150;2022-09-27T14:43:09;11.48;;;9.57;;
49422;SDS011;36998;51.974;20.150;2022-09-27T14:45:42;9.73;;;8.43;;
49422;SDS011;36998;51.974;20.150;2022-09-27T14:48:27;11.27;;;8.57;;
49422;SDS011;36998;51.974;20.150;2022-09-27T14:50:58;12.07;;;10.07;;
49422;SDS011;36998;51.974;20.150;2022-09-27T14:53:32;13.00;;;9.40;;
49422;SDS011;36998;51.974;20.150;2022-09-27T14:56:00;16.83;;;10.40;;
49422;SDS011;36998;51.974;20.150;2022-09-27T14:58:26;11.88;;;10.55;;
49422;SDS011;36998;51.974;20.150;2022-09-27T15:00:54;12.10;;;10.40;;
49422;SDS011;36998;51.974;20.150;2022-09-27T15:03:27;11.48;;;10.23;;
49422;SDS011;36998;51.974;20.150;2022-09-27T15:05:57;13.75;;;10.70;;
49422;SDS011;36998;51.974;20.150;2022-09-27T15:08:29;13.45;;;11.45;;
49422;SDS011;36998;51.974;20.150;2022-09-27T15:10:58;15.75;;;11.38;;
49422;SDS011;36998;51.974;20.150;2022-09-27T15:13:25;13.80;;;12.18;;
49422;SDS011;36998;51.974;20.150;2022-09-27T15:15:52;14.70;;;12.38;;
49422;SDS011;36998;51.974;20.150;2022-09-27T15:21:04;20.30;;;13.63;;
49422;SDS011;36998;51.974;20.150;2022-09-27T15:23:34;16.98;;;13.40;;
49422;SDS011;36998;51.974;20.150;2022-09-27T15:26:26;16.77;;;13.02;;
49422;SDS011;36998;51.974;20.150;2022-09-27T15:28:59;23.83;;;15.00;;
49422;SDS011;36998;51.974;20.150;2022-09-27T15:31:28;22.65;;;14.90;;
49422;SDS011;36998;51.974;20.150;2022-09-27T15:33:55;21.65;;;16.35;;
49422;SDS011;36998;51.974;20.150;2022-09-27T15:39:17;22.15;;;15.90;;
49422;SDS011;36998;51.974;20.150;2022-09-27T15:47:01;27.98;;;17.77;;
49422;SDS011;36998;51.974;20.150;2022-09-27T15:49:30;33.20;;;18.13;;
49422;SDS011;36998;51.974;20.150;2022-09-27T15:52:00;33.88;;;18.95;;
49422;SDS011;36998;51.974;20.150;2022-09-27T15:54:28;27.65;;;19.33;;
49422;SDS011;36998;51.974;20.150;2022-09-27T15:56:56;26.80;;;18.55;;
49422;SDS011;36998;51.974;20.150;2022-09-27T15:59:29;28.88;;;20.17;;
49422;SDS011;36998;51.974;20.150;2022-09-27T16:01:57;28.60;;;19.38;;
49422;SDS011;36998;51.974;20.150;2022-09-27T16:04:27;26.48;;;18.45;;
49422;SDS011;36998;51.974;20.150;2022-09-27T16:06:55;25.75;;;17.45;;
49422;SDS011;36998;51.974;20.150;2022-09-27T16:09:23;25.98;;;18.35;;
49422;SDS011;36998;51.974;20.150;2022-09-27T16:11:48;28.95;;;18.52;;
49422;SDS011;36998;51.974;20.150;2022-09-27T16:14:14;31.42;;;18.90;;
49422;SDS011;36998;51.974;20.150;2022-09-27T16:16:45;29.80;;;18.42;;
49422;SDS011;36998;51.974;20.150;2022-09-27T16:19:13;27.20;;;17.70;;
49422;SDS011;36998;51.974;20.150;2022-09-27T16:21:38;30.08;;;19.75;;
49422;SDS011;36998;51.974;20.150;2022-09-27T16:24:05;26.17;;;18.05;;
49422;SDS011;36998;51.974;20.150;2022-09-27T16:26:31;26.35;;;16.88;;
49422;SDS011;36998;51.974;20.150;2022-09-27T16:28:58;26.98;;;17.73;;
49422;SDS011;36998;51.974;20.150;2022-09-27T16:31:23;27.35;;;17.83;;
49422;SDS011;36998;51.974;20.150;2022-09-27T16:33:49;26.75;;;17.80;;
49422;SDS011;36998;51.974;20.150;2022-09-27T16:36:15;29.77;;;18.35;;
49422;SDS011;36998;51.974;20.150;2022-09-27T16:38:48;25.98;;;17.70;;
49422;SDS011;36998;51.974;20.150;2022-09-27T16:41:14;29.15;;;18.17;;
49422;SDS011;36998;51.974;20.150;2022-09-27T16:43:40;26.08;;;16.00;;
49422;SDS011;36998;51.974;20.150;2022-09-27T16:46:06;23.10;;;16.27;;
49422;SDS011;36998;51.974;20.150;2022-09-27T16:48:33;27.73;;;16.95;;
49422;SDS011;36998;51.974;20.150;2022-09-27T16:51:10;32.67;;;20.00;;
49422;SDS011;36998;51.974;20.150;2022-09-27T16:53:57;29.63;;;18.73;;
49422;SDS011;36998;51.974;20.150;2022-09-27T16:56:23;28.70;;;17.35;;
49422;SDS011;36998;51.974;20.150;2022-09-27T16:58:49;36.97;;;17.40;;
49422;SDS011;36998;51.974;20.150;2022-09-27T17:01:14;25.48;;;16.38;;
49422;SDS011;36998;51.974;20.150;2022-09-27T17:03:43;24.55;;;14.88;;
49422;SDS011;36998;51.974;20.150;2022-09-27T17:06:14;21.85;;;14.45;;
49422;SDS011;36998;51.974;20.150;2022-09-27T17:08:40;23.38;;;14.07;;
49422;SDS011;36998;51.974;20.150;2022-09-27T17:11:05;24.10;;;14.80;;
49422;SDS011;36998;51.974;20.150;2022-09-27T17:13:31;21.33;;;14.18;;
49422;SDS011;36998;51.974;20.150;2022-09-27T17:15:57;20.60;;;14.38;;
49422;SDS011;36998;51.974;20.150;2022-09-27T17:18:23;21.35;;;13.73;;